Superfun — ZCCL5 — position and weather

sailwx.info

Track history (hours):
 
Tides and Currents Weather Stations Pressure Air Temp Water Temp Dewpoint Dewpoint Depression Visibility Wind Speed Wind Dir Waves Ship Positions

Superfun

Last reported at 2016-Sep-26 08:13 UTC. Time now 2016-Sep-28 12:02 UTC.
Position N 43°30' E 007°04'.

Length 40 m.

Type: Other ship. MMSI: 319163000.

Date/timePositionNaut miles runAvg speedWind from/ knotsBaromVisibWave heightAir tempDewpointWater temp
2016-Sep-26 08:13N 43°30' E 007°04'2 0.3
2016-Sep-26 02:23N 43°32' E 007°03'0 0.0
2016-Sep-26 01:05N 43°32' E 007°03'0 0.0
2016-Sep-26 00:11N 43°32' E 007°03'0 0.0
2016-Sep-25 15:17N 43°32' E 007°03'9 3.5
2016-Sep-25 12:33N 43°36' E 007°14'10 9.7
2016-Sep-25 11:33N 43°42' E 007°25'4 0.3
2016-Sep-24 21:30N 43°45' E 007°28'72 2.0
2016-Sep-23 09:31N 44°25' E 008°50'0 0.0
2016-Sep-23 06:31N 44°25' E 008°50'0 0.0
2016-Sep-23 04:31N 44°25' E 008°50'0 0.0
2016-Sep-23 03:31N 44°25' E 008°50'0 0.0
2016-Sep-23 02:31N 44°25' E 008°50'0 0.0
2016-Sep-23 01:31N 44°25' E 008°50'0 0.0
2016-Sep-23 00:22N 44°25' E 008°50'0 0.0
2016-Sep-22 23:22N 44°25' E 008°50'0 0.0
2016-Sep-22 20:28N 44°25' E 008°50'0 0.0
2016-Sep-22 12:31N 44°25' E 008°50'0 0.0
2016-Sep-22 04:28N 44°25' E 008°50'0 0.0
2016-Sep-22 03:31N 44°25' E 008°50'0 0.0
2016-Sep-22 00:31N 44°25' E 008°50'0 0.0
2016-Sep-21 23:31N 44°25' E 008°50'0 0.0
2016-Sep-21 22:31N 44°25' E 008°50'0 0.0
2016-Sep-21 19:31N 44°25' E 008°50'0 0.0
2016-Sep-21 16:22N 44°25' E 008°50'0 0.0
2016-Sep-21 09:31N 44°25' E 008°50'0 0.0
2016-Sep-21 08:31N 44°25' E 008°50'0 0.0
2016-Sep-21 03:22N 44°25' E 008°50'0 0.0
2016-Sep-21 02:22N 44°25' E 008°50'0 0.0
2016-Sep-20 17:31N 44°25' E 008°50'0 0.0
2016-Sep-20 14:31N 44°25' E 008°50'0 0.0
2016-Sep-20 13:19N 44°25' E 008°50'0 0.0
2016-Sep-20 10:25N 44°25' E 008°50'0 0.0
2016-Sep-20 08:25N 44°25' E 008°50'0 0.0
2016-Sep-20 07:25N 44°25' E 008°50'0 0.0
2016-Sep-20 06:25N 44°25' E 008°50'0 0.0
2016-Sep-20 02:31N 44°25' E 008°50'0 0.0
2016-Sep-19 23:31N 44°25' E 008°50'0 0.0
2016-Sep-19 19:25N 44°25' E 008°50'0 0.0
2016-Sep-19 18:25N 44°25' E 008°50'0 0.0
2016-Sep-19 16:25N 44°25' E 008°50'0 0.0
2016-Sep-19 14:28N 44°25' E 008°50'0 0.0
2016-Sep-19 13:31N 44°25' E 008°50'0 0.0
2016-Sep-19 12:28N 44°25' E 008°50'0 0.0
2016-Sep-19 11:31N 44°25' E 008°50'0 0.0
2016-Sep-19 09:31N 44°25' E 008°50'0 0.0
2016-Sep-19 07:31N 44°25' E 008°50'0 0.0
2016-Sep-19 06:22N 44°25' E 008°50'0 0.0
2016-Sep-19 03:22N 44°25' E 008°50'0 0.0
2016-Sep-19 02:25N 44°25' E 008°50'0 0.0
2016-Sep-19 00:28N 44°25' E 008°50'0 0.0
2016-Sep-18 19:31N 44°25' E 008°50'0 0.0
2016-Sep-18 15:25N 44°25' E 008°50'0 0.0
2016-Sep-18 14:22N 44°25' E 008°50'0 0.0
2016-Sep-18 10:28N 44°25' E 008°50'0 0.0
2016-Sep-18 09:28N 44°25' E 008°50'0 0.0
2016-Sep-18 02:31N 44°25' E 008°50'0 0.0
2016-Sep-18 01:04N 44°25' E 008°50'0 0.0
2016-Sep-18 00:31N 44°25' E 008°50'0 0.0
2016-Sep-17 22:25N 44°25' E 008°50'0 0.0
2016-Sep-17 21:25N 44°25' E 008°50'0 0.0
2016-Sep-17 20:28N 44°25' E 008°50'0 0.0
2016-Sep-17 19:13N 44°25' E 008°50'0 0.0
2016-Sep-17 13:31N 44°25' E 008°50'0 0.0
2016-Sep-17 12:31N 44°25' E 008°50'0 0.0
2016-Sep-17 10:31N 44°25' E 008°50'0 0.0
2016-Sep-17 09:25N 44°25' E 008°50'0 0.0
2016-Sep-17 08:19N 44°25' E 008°50'0 0.0
2016-Sep-17 07:34N 44°25' E 008°50'0 0.0
2016-Sep-17 05:33N 44°25' E 008°50'0 0.0
2016-Sep-17 04:28N 44°25' E 008°50'0 0.0
2016-Sep-17 00:31N 44°25' E 008°50'0 0.0
2016-Sep-16 17:33N 44°25' E 008°50'0 0.0
2016-Sep-16 15:33N 44°25' E 008°50'0 0.0
2016-Sep-16 12:27N 44°25' E 008°50'0 0.0
2016-Sep-16 09:30N 44°25' E 008°50'  
Track history (hours):
 
Tides and Currents Weather Stations Pressure Air Temp Water Temp Dewpoint Dewpoint Depression Visibility Wind Speed Wind Dir Waves Ship Positions

Superfun

Last reported at 2016-Sep-26 08:13 UTC. Time now 2016-Sep-28 12:02 UTC.
Position N 43°30' E 007°04'.

Length 40 m.

Type: Other ship. MMSI: 319163000.

Date/timePositionNaut miles runAvg speedWind from/ knotsBaromVisibWave heightAir tempDewpointWater temp
2016-Sep-26 08:13N 43°30' E 007°04'2 0.3
2016-Sep-26 02:23N 43°32' E 007°03'0 0.0
2016-Sep-26 01:05N 43°32' E 007°03'0 0.0
2016-Sep-26 00:11N 43°32' E 007°03'0 0.0
2016-Sep-25 15:17N 43°32' E 007°03'9 3.5
2016-Sep-25 12:33N 43°36' E 007°14'10 9.7
2016-Sep-25 11:33N 43°42' E 007°25'4 0.3
2016-Sep-24 21:30N 43°45' E 007°28'72 2.0
2016-Sep-23 09:31N 44°25' E 008°50'0 0.0
2016-Sep-23 06:31N 44°25' E 008°50'0 0.0
2016-Sep-23 04:31N 44°25' E 008°50'0 0.0
2016-Sep-23 03:31N 44°25' E 008°50'0 0.0
2016-Sep-23 02:31N 44°25' E 008°50'0 0.0
2016-Sep-23 01:31N 44°25' E 008°50'0 0.0
2016-Sep-23 00:22N 44°25' E 008°50'0 0.0
2016-Sep-22 23:22N 44°25' E 008°50'0 0.0
2016-Sep-22 20:28N 44°25' E 008°50'0 0.0
2016-Sep-22 12:31N 44°25' E 008°50'0 0.0
2016-Sep-22 04:28N 44°25' E 008°50'0 0.0
2016-Sep-22 03:31N 44°25' E 008°50'0 0.0
2016-Sep-22 00:31N 44°25' E 008°50'0 0.0
2016-Sep-21 23:31N 44°25' E 008°50'0 0.0
2016-Sep-21 22:31N 44°25' E 008°50'0 0.0
2016-Sep-21 19:31N 44°25' E 008°50'0 0.0
2016-Sep-21 16:22N 44°25' E 008°50'0 0.0
2016-Sep-21 09:31N 44°25' E 008°50'0 0.0
2016-Sep-21 08:31N 44°25' E 008°50'0 0.0
2016-Sep-21 03:22N 44°25' E 008°50'0 0.0
2016-Sep-21 02:22N 44°25' E 008°50'0 0.0
2016-Sep-20 17:31N 44°25' E 008°50'0 0.0
2016-Sep-20 14:31N 44°25' E 008°50'0 0.0
2016-Sep-20 13:19N 44°25' E 008°50'0 0.0
2016-Sep-20 10:25N 44°25' E 008°50'0 0.0
2016-Sep-20 08:25N 44°25' E 008°50'0 0.0
2016-Sep-20 07:25N 44°25' E 008°50'0 0.0
2016-Sep-20 06:25N 44°25' E 008°50'0 0.0
2016-Sep-20 02:31N 44°25' E 008°50'0 0.0
2016-Sep-19 23:31N 44°25' E 008°50'0 0.0
2016-Sep-19 19:25N 44°25' E 008°50'0 0.0
2016-Sep-19 18:25N 44°25' E 008°50'0 0.0
2016-Sep-19 16:25N 44°25' E 008°50'0 0.0
2016-Sep-19 14:28N 44°25' E 008°50'0 0.0
2016-Sep-19 13:31N 44°25' E 008°50'0 0.0
2016-Sep-19 12:28N 44°25' E 008°50'0 0.0
2016-Sep-19 11:31N 44°25' E 008°50'0 0.0
2016-Sep-19 09:31N 44°25' E 008°50'0 0.0
2016-Sep-19 07:31N 44°25' E 008°50'0 0.0
2016-Sep-19 06:22N 44°25' E 008°50'0 0.0
2016-Sep-19 03:22N 44°25' E 008°50'0 0.0
2016-Sep-19 02:25N 44°25' E 008°50'0 0.0
2016-Sep-19 00:28N 44°25' E 008°50'0 0.0
2016-Sep-18 19:31N 44°25' E 008°50'0 0.0
2016-Sep-18 15:25N 44°25' E 008°50'0 0.0
2016-Sep-18 14:22N 44°25' E 008°50'0 0.0
2016-Sep-18 10:28N 44°25' E 008°50'0 0.0
2016-Sep-18 09:28N 44°25' E 008°50'0 0.0
2016-Sep-18 02:31N 44°25' E 008°50'0 0.0
2016-Sep-18 01:04N 44°25' E 008°50'0 0.0
2016-Sep-18 00:31N 44°25' E 008°50'0 0.0
2016-Sep-17 22:25N 44°25' E 008°50'0 0.0
2016-Sep-17 21:25N 44°25' E 008°50'0 0.0
2016-Sep-17 20:28N 44°25' E 008°50'0 0.0
2016-Sep-17 19:13N 44°25' E 008°50'0 0.0
2016-Sep-17 13:31N 44°25' E 008°50'0 0.0
2016-Sep-17 12:31N 44°25' E 008°50'0 0.0
2016-Sep-17 10:31N 44°25' E 008°50'0 0.0
2016-Sep-17 09:25N 44°25' E 008°50'0 0.0
2016-Sep-17 08:19N 44°25' E 008°50'0 0.0
2016-Sep-17 07:34N 44°25' E 008°50'0 0.0
2016-Sep-17 05:33N 44°25' E 008°50'0 0.0
2016-Sep-17 04:28N 44°25' E 008°50'0 0.0
2016-Sep-17 00:31N 44°25' E 008°50'0 0.0
2016-Sep-16 17:33N 44°25' E 008°50'0 0.0
2016-Sep-16 15:33N 44°25' E 008°50'0 0.0
2016-Sep-16 12:27N 44°25' E 008°50'0 0.0
2016-Sep-16 09:30N 44°25' E 008°50'  

Dump ship's entire track history